createdAt,value
2018-07-04T00:00:48.112Z,44.98
2018-07-04T00:04:01.704Z,44.86
2018-07-04T00:07:15.292Z,45.63
2018-07-04T00:10:29.039Z,46.14
2018-07-04T00:13:42.791Z,46.34
2018-07-04T00:16:56.571Z,45.41
2018-07-04T00:20:11.330Z,45.47
2018-07-04T00:23:24.924Z,44.91
2018-07-04T00:26:38.703Z,44.97
2018-07-04T00:29:52.295Z,44.45
2018-07-04T00:33:07.122Z,45.16
2018-07-04T00:36:21.638Z,44.39
2018-07-04T00:39:35.404Z,45.08
2018-07-04T00:42:49.096Z,45.56
2018-07-04T00:46:02.762Z,45.19
2018-07-04T00:49:16.549Z,45.96
2018-07-04T00:52:30.314Z,45.58
2018-07-04T00:55:44.004Z,45.23
2018-07-04T00:58:57.808Z,45.14
2018-07-04T01:02:11.423Z,44.64
2018-07-04T01:05:26.124Z,44.87
2018-07-04T01:08:39.671Z,45.80
2018-07-04T01:11:53.705Z,45.05
2018-07-04T01:15:07.353Z,44.60
2018-07-04T01:18:21.009Z,44.08
2018-07-04T01:21:34.777Z,43.83
2018-07-04T01:24:48.450Z,43.68
2018-07-04T01:28:02.750Z,43.75
2018-07-04T01:31:16.417Z,43.64
2018-07-04T01:34:30.059Z,44.17
2018-07-04T01:37:43.685Z,44.04
2018-07-04T01:40:58.088Z,43.37
2018-07-04T01:44:11.850Z,43.15
2018-07-04T01:47:26.111Z,43.59
2018-07-04T01:50:39.895Z,44.18
2018-07-04T01:53:54.652Z,43.94
2018-07-04T01:57:08.151Z,43.58
2018-07-04T02:00:21.781Z,44.05
2018-07-04T02:03:35.625Z,44.43
2018-07-04T02:06:49.527Z,44.07
2018-07-04T02:10:03.220Z,44.01
2018-07-04T02:13:16.864Z,44.19
2018-07-04T02:16:30.520Z,44.27
2018-07-04T02:19:45.207Z,44.50
2018-07-04T02:22:58.882Z,44.70
2018-07-04T02:26:12.337Z,44.67
2018-07-04T02:29:27.294Z,44.77
2018-07-04T02:32:41.263Z,45.24
2018-07-04T02:35:56.457Z,46.43
2018-07-04T02:39:10.175Z,45.39
2018-07-04T02:42:23.726Z,46.58
2018-07-04T02:45:37.464Z,45.71
2018-07-04T02:48:51.120Z,46.49
2018-07-04T02:52:04.806Z,46.48
2018-07-04T02:55:18.465Z,46.34
2018-07-04T02:58:32.142Z,46.43
2018-07-04T03:01:45.647Z,46.45
2018-07-04T03:04:59.344Z,46.64
2018-07-04T03:08:12.984Z,46.89
2018-07-04T03:11:27.139Z,46.71
2018-07-04T03:14:40.786Z,47.77
2018-07-04T03:17:54.617Z,48.25
2018-07-04T03:21:08.261Z,47.71
2018-07-04T03:24:21.955Z,47.58
2018-07-04T03:27:35.583Z,48.16
2018-07-04T03:30:49.275Z,47.91
2018-07-04T03:34:05.165Z,47.81
2018-07-04T03:37:18.887Z,47.52
2018-07-04T03:40:32.558Z,47.88
2018-07-04T03:43:46.348Z,47.73
2018-07-04T03:47:00.037Z,48.21
2018-07-04T03:50:13.579Z,48.02
2018-07-04T03:53:27.341Z,48.37
2018-07-04T03:56:44.449Z,48.51
2018-07-04T03:59:58.210Z,48.35
2018-07-04T04:03:12.074Z,47.77
2018-07-04T04:06:25.760Z,47.71
2018-07-04T04:09:40.154Z,47.57
2018-07-04T04:12:53.871Z,48.27
2018-07-04T04:16:07.663Z,48.40
2018-07-04T04:19:29.834Z,49.00
2018-07-04T04:22:43.316Z,49.20
2018-07-04T04:25:58.012Z,50.09
2018-07-04T04:29:11.692Z,49.78
2018-07-04T04:32:25.232Z,49.11
2018-07-04T04:35:38.886Z,50.34
2018-07-04T04:38:52.466Z,50.45
2018-07-04T04:42:06.080Z,50.30
2018-07-04T04:45:19.539Z,50.52
2018-07-04T04:48:33.170Z,49.88
2018-07-04T04:51:46.859Z,50.85
2018-07-04T04:55:00.652Z,50.95
2018-07-04T04:58:14.284Z,50.30
2018-07-04T05:01:28.100Z,49.89
2018-07-04T05:04:41.895Z,49.84
2018-07-04T05:07:55.624Z,49.79
2018-07-04T05:11:09.178Z,49.53
2018-07-04T05:14:22.995Z,49.49
2018-07-04T05:17:36.619Z,49.97
2018-07-04T05:20:50.230Z,49.82
2018-07-04T05:24:03.966Z,50.47
2018-07-04T05:27:17.673Z,50.60
2018-07-04T05:30:31.622Z,49.87
2018-07-04T05:33:45.580Z,49.81
2018-07-04T05:36:59.327Z,52.02
2018-07-04T05:40:13.005Z,51.61
2018-07-04T05:43:27.774Z,53.02
2018-07-04T05:46:41.636Z,51.84
2018-07-04T05:49:55.465Z,52.34
2018-07-04T05:53:09.199Z,51.60
2018-07-04T05:56:22.853Z,50.82
2018-07-04T05:59:37.684Z,50.81
2018-07-04T06:02:51.139Z,51.09
2018-07-04T06:06:04.832Z,50.79
2018-07-04T06:09:18.385Z,52.11
2018-07-04T06:12:32.022Z,51.60
2018-07-04T06:15:45.634Z,54.28
2018-07-04T06:18:59.190Z,54.87
2018-07-04T06:22:13.028Z,58.65
2018-07-04T06:25:27.855Z,58.58
2018-07-04T06:28:41.590Z,57.89
2018-07-04T06:31:55.778Z,58.75
2018-07-04T06:35:09.512Z,59.02
2018-07-04T06:38:10.614Z,58.13
2018-07-04T06:41:11.790Z,58.13
2018-07-04T06:44:12.919Z,57.99
2018-07-04T06:47:14.068Z,57.72
2018-07-04T06:50:15.247Z,57.79
2018-07-04T06:53:16.360Z,57.72
2018-07-04T06:56:17.554Z,57.28
2018-07-04T06:59:18.652Z,58.21
2018-07-04T07:02:20.295Z,57.88
2018-07-04T07:05:33.942Z,56.94
2018-07-04T07:08:47.549Z,57.97
2018-07-04T07:12:01.127Z,57.62
2018-07-04T07:15:14.866Z,57.25
2018-07-04T07:18:28.519Z,56.92
2018-07-04T07:21:42.147Z,57.61
2018-07-04T07:24:55.718Z,56.60
2018-07-04T07:28:09.343Z,57.08
2018-07-04T07:31:23.510Z,56.31
2018-07-04T07:34:37.279Z,56.37
2018-07-04T07:37:51.926Z,55.88
2018-07-04T07:41:05.607Z,56.60
2018-07-04T07:44:19.290Z,55.34
2018-07-04T07:47:32.897Z,54.70
2018-07-04T07:50:46.600Z,54.68
2018-07-04T07:54:00.339Z,54.39
2018-07-04T07:57:13.908Z,54.76
2018-07-04T08:00:28.599Z,53.36
2018-07-04T08:03:42.431Z,53.48
2018-07-04T08:06:56.206Z,53.54
2018-07-04T08:10:09.755Z,53.58
2018-07-04T08:13:23.627Z,52.87
2018-07-04T08:16:37.456Z,53.31
2018-07-04T08:19:52.245Z,53.09
2018-07-04T08:23:05.964Z,53.02
2018-07-04T08:26:19.645Z,51.88
2018-07-04T08:29:33.399Z,51.79
2018-07-04T08:32:47.091Z,51.51
2018-07-04T08:36:00.731Z,51.11
2018-07-04T08:39:14.590Z,50.76
2018-07-04T08:42:29.241Z,51.67
2018-07-04T08:45:43.079Z,50.71
2018-07-04T08:48:56.853Z,49.10
2018-07-04T08:52:11.188Z,48.87
2018-07-04T08:55:25.070Z,48.82
2018-07-04T08:58:38.848Z,48.65
2018-07-04T09:01:52.555Z,48.60
2018-07-04T09:05:07.388Z,48.01
2018-07-04T09:08:20.955Z,47.00
2018-07-04T09:11:34.620Z,46.79
2018-07-04T09:14:48.264Z,47.57
2018-07-04T09:18:02.875Z,46.81
2018-07-04T09:21:16.692Z,47.48
2018-07-04T09:24:30.385Z,46.80
2018-07-04T09:27:43.997Z,46.12
2018-07-04T09:30:57.599Z,46.47
2018-07-04T09:34:11.560Z,44.56
2018-07-04T09:37:25.142Z,45.04
2018-07-04T09:40:38.875Z,45.00
2018-07-04T09:43:53.755Z,44.26
2018-07-04T09:47:07.454Z,43.53
2018-07-04T09:50:21.612Z,42.44
2018-07-04T09:53:36.753Z,41.67
2018-07-04T09:56:50.625Z,39.52
2018-07-04T10:00:04.366Z,38.63
2018-07-04T10:03:18.145Z,39.60
2018-07-04T10:06:31.774Z,38.20
2018-07-04T10:09:45.608Z,39.28
2018-07-04T10:12:59.248Z,37.89
2018-07-04T10:16:12.924Z,38.85
2018-07-04T10:19:29.507Z,38.69
2018-07-04T10:22:42.971Z,38.91
2018-07-04T10:25:56.695Z,38.93
2018-07-04T10:29:10.386Z,38.80
2018-07-04T10:32:23.907Z,39.54
2018-07-04T10:35:37.495Z,35.56
2018-07-04T10:38:51.251Z,33.73
2018-07-04T10:42:05.078Z,33.07
2018-07-04T10:45:18.609Z,32.42
2018-07-04T10:48:32.553Z,34.27
2018-07-04T10:51:46.092Z,34.24
2018-07-04T10:55:00.501Z,34.88
2018-07-04T10:58:14.231Z,35.28
2018-07-04T11:01:27.775Z,35.75
2018-07-04T11:04:41.662Z,36.05
2018-07-04T11:07:55.177Z,37.05
2018-07-04T11:11:08.853Z,37.92
2018-07-04T11:14:22.604Z,37.49
2018-07-04T11:17:36.418Z,38.39
2018-07-04T11:20:50.215Z,38.79
2018-07-04T11:24:04.064Z,38.28
2018-07-04T11:27:17.711Z,38.53
2018-07-04T11:30:31.304Z,38.39
2018-07-04T11:33:45.192Z,38.58
2018-07-04T11:36:59.805Z,38.45
2018-07-04T11:40:13.523Z,38.39
2018-07-04T11:43:27.186Z,39.24
2018-07-04T11:46:28.350Z,38.52
2018-07-04T11:49:31.056Z,39.21
2018-07-04T11:52:32.076Z,39.28
2018-07-04T11:55:35.188Z,39.43
2018-07-04T11:58:36.299Z,39.74
2018-07-04T12:01:37.471Z,38.38
2018-07-04T12:04:51.147Z,39.59
2018-07-04T12:07:52.276Z,39.20
2018-07-04T12:10:54.043Z,39.54
2018-07-04T12:13:55.019Z,38.53
2018-07-04T12:16:56.364Z,37.72
2018-07-04T12:19:57.564Z,37.16
2018-07-04T12:22:59.716Z,42.18
2018-07-04T12:26:00.907Z,43.41
2018-07-04T12:29:02.044Z,46.45
2018-07-04T12:32:03.246Z,48.77
2018-07-04T12:35:04.437Z,51.12
2018-07-04T12:38:05.590Z,53.17
2018-07-04T12:41:06.735Z,53.78
2018-07-04T12:44:07.759Z,54.17
2018-07-04T12:47:09.011Z,53.48
2018-07-04T12:50:22.672Z,52.50
2018-07-04T12:53:23.691Z,51.34
2018-07-04T12:56:37.509Z,51.24
2018-07-04T12:59:51.319Z,50.79
2018-07-04T13:03:04.928Z,52.08
2018-07-04T13:06:18.828Z,52.69
2018-07-04T13:09:32.602Z,54.46
2018-07-04T13:12:46.424Z,54.15
2018-07-04T13:16:01.175Z,55.24
2018-07-04T13:19:14.788Z,55.29
2018-07-04T13:22:28.301Z,54.74
2018-07-04T13:25:41.925Z,53.89
2018-07-04T13:28:55.650Z,52.93
2018-07-04T13:32:09.342Z,52.51
2018-07-04T13:35:24.043Z,52.65
2018-07-04T13:38:37.893Z,54.47
2018-07-04T13:41:51.380Z,55.57
2018-07-04T13:45:04.939Z,56.74
2018-07-04T13:48:18.579Z,55.21
2018-07-04T13:51:32.191Z,51.98
2018-07-04T13:54:45.889Z,51.26
2018-07-04T13:58:00.375Z,50.98
2018-07-04T14:01:15.608Z,51.35
2018-07-04T14:04:30.365Z,50.33
2018-07-04T14:07:44.207Z,50.50
2018-07-04T14:10:57.992Z,49.15
2018-07-04T14:14:11.616Z,49.50
2018-07-04T14:17:25.517Z,48.87
2018-07-04T14:20:39.283Z,48.43
2018-07-04T14:23:53.560Z,48.14
2018-07-04T14:27:07.199Z,47.59
2018-07-04T14:30:20.766Z,46.66
2018-07-04T14:33:34.380Z,45.78
2018-07-04T14:36:48.171Z,45.67
2018-07-04T14:40:01.896Z,45.65
2018-07-04T14:43:15.705Z,44.53
2018-07-04T14:46:29.499Z,43.04
2018-07-04T14:49:43.269Z,42.58
2018-07-04T14:52:56.943Z,42.02
2018-07-04T14:56:10.596Z,42.13
2018-07-04T14:59:24.212Z,41.08
2018-07-04T15:02:38.771Z,41.33
2018-07-04T15:05:52.667Z,41.16
2018-07-04T15:09:06.401Z,40.74
2018-07-04T15:12:20.110Z,40.14
2018-07-04T15:15:33.769Z,40.18
2018-07-04T15:18:47.356Z,41.78
2018-07-04T15:22:01.340Z,41.25
2018-07-04T15:25:16.118Z,40.63
2018-07-04T15:28:29.779Z,41.34
2018-07-04T15:31:44.147Z,42.67
2018-07-04T15:34:57.961Z,41.74
2018-07-04T15:38:11.542Z,41.56
2018-07-04T15:41:25.216Z,42.44
2018-07-04T15:44:38.974Z,42.38
2018-07-04T15:47:52.607Z,41.91
2018-07-04T15:51:06.116Z,42.59
2018-07-04T15:54:19.808Z,42.77
2018-07-04T15:57:33.465Z,42.07
2018-07-04T16:00:47.069Z,42.56
2018-07-04T16:04:01.632Z,41.98
2018-07-04T16:07:15.434Z,41.69
2018-07-04T16:10:29.245Z,41.05
2018-07-04T16:13:42.891Z,41.33
2018-07-04T16:16:57.664Z,41.98
2018-07-04T16:20:11.517Z,42.85
2018-07-04T16:23:25.097Z,43.80
2018-07-04T16:26:39.419Z,44.50
2018-07-04T16:29:53.015Z,45.04
2018-07-04T16:33:06.653Z,45.54
2018-07-04T16:36:21.342Z,45.53
2018-07-04T16:39:35.465Z,46.95
2018-07-04T16:42:49.116Z,47.57
2018-07-04T16:46:02.668Z,47.72
2018-07-04T16:49:22.698Z,48.07
2018-07-04T16:52:36.377Z,47.04
2018-07-04T16:55:49.914Z,47.10
2018-07-04T16:59:03.543Z,46.26
2018-07-04T17:02:17.096Z,45.21
2018-07-04T17:05:31.510Z,44.92
2018-07-04T17:08:45.150Z,45.04
2018-07-04T17:11:59.274Z,43.87
2018-07-04T17:15:13.035Z,43.61
2018-07-04T17:18:26.688Z,42.97
2018-07-04T17:21:40.970Z,43.36
2018-07-04T17:24:54.817Z,43.25
2018-07-04T17:28:08.564Z,43.93
2018-07-04T17:31:22.273Z,43.25
2018-07-04T17:34:35.872Z,43.79
2018-07-04T17:37:49.382Z,43.35
2018-07-04T17:41:02.902Z,42.70
2018-07-04T17:44:16.783Z,43.97
2018-07-04T17:47:30.302Z,44.13
2018-07-04T17:50:43.890Z,44.12
2018-07-04T17:53:57.754Z,44.21
2018-07-04T17:57:11.626Z,44.18
2018-07-04T18:00:25.493Z,43.72
2018-07-04T18:03:39.269Z,43.17
2018-07-04T18:06:52.871Z,43.56
2018-07-04T18:10:06.437Z,43.95
2018-07-04T18:13:20.234Z,44.15
2018-07-04T18:16:33.800Z,44.39
2018-07-04T18:19:47.319Z,44.65
2018-07-04T18:23:02.077Z,45.26
2018-07-04T18:26:15.736Z,45.88
2018-07-04T18:29:29.554Z,46.32
2018-07-04T18:32:43.407Z,46.56
2018-07-04T18:35:57.159Z,46.87
2018-07-04T18:39:10.923Z,47.03
2018-07-04T18:42:24.764Z,47.29
2018-07-04T18:45:39.057Z,47.44
2018-07-04T18:48:52.787Z,47.42
2018-07-04T18:52:06.533Z,47.00
2018-07-04T18:55:21.301Z,47.36
2018-07-04T18:58:36.155Z,47.06
2018-07-04T19:01:49.876Z,47.06
2018-07-04T19:05:03.624Z,47.27
2018-07-04T19:08:17.579Z,47.60
2018-07-04T19:11:32.836Z,47.69
2018-07-04T19:14:58.531Z,47.23
2018-07-04T19:18:12.292Z,46.94
2018-07-04T19:21:26.199Z,47.08
2018-07-04T19:24:40.254Z,47.60
2018-07-04T19:27:53.978Z,47.71
2018-07-04T19:31:07.846Z,48.12
2018-07-04T19:34:21.484Z,48.01
2018-07-04T19:37:35.024Z,47.95
2018-07-04T19:40:48.511Z,47.95
2018-07-04T19:44:02.200Z,48.17
2018-07-04T19:47:15.839Z,47.90
2018-07-04T19:50:29.427Z,48.09
2018-07-04T19:53:43.078Z,47.67
2018-07-04T19:56:56.785Z,47.77
2018-07-04T20:00:11.221Z,48.15
2018-07-04T20:03:25.294Z,48.05
2018-07-04T20:06:39.068Z,47.93
2018-07-04T20:09:52.846Z,47.93
2018-07-04T20:13:06.816Z,47.69
2018-07-04T20:16:20.599Z,47.51
2018-07-04T20:19:34.437Z,47.63
2018-07-04T20:22:48.060Z,47.36
2018-07-04T20:26:03.402Z,47.93
2018-07-04T20:29:17.052Z,48.10
2018-07-04T20:32:30.698Z,49.04
2018-07-04T20:35:45.128Z,48.41
2018-07-04T20:38:58.815Z,48.16
2018-07-04T20:42:12.338Z,48.56
2018-07-04T20:45:25.925Z,49.14
2018-07-04T20:48:39.773Z,49.98
2018-07-04T20:51:53.595Z,50.21
2018-07-04T20:55:07.252Z,51.19
2018-07-04T20:58:21.047Z,50.52
2018-07-04T21:01:34.654Z,50.64
2018-07-04T21:04:48.527Z,51.38
2018-07-04T21:08:02.304Z,51.87
2018-07-04T21:11:17.146Z,51.43
2018-07-04T21:14:30.748Z,52.85
2018-07-04T21:17:44.352Z,52.96
2018-07-04T21:20:57.991Z,53.67
2018-07-04T21:24:11.699Z,54.44
2018-07-04T21:27:25.337Z,55.21
2018-07-04T21:30:38.932Z,54.66
2018-07-04T21:33:52.802Z,54.13
2018-07-04T21:37:06.763Z,54.24
2018-07-04T21:40:20.347Z,55.17
2018-07-04T21:43:34.019Z,54.72
2018-07-04T21:46:48.792Z,55.78
2018-07-04T21:50:02.544Z,56.06
2018-07-04T21:53:16.154Z,56.63
2018-07-04T21:56:30.940Z,56.78
2018-07-04T21:59:45.015Z,57.61
2018-07-04T22:02:58.616Z,58.83
2018-07-04T22:06:12.451Z,57.92
2018-07-04T22:09:27.311Z,58.73
2018-07-04T22:12:41.046Z,59.27
2018-07-04T22:15:54.828Z,59.37
2018-07-04T22:19:09.343Z,60.08
2018-07-04T22:22:23.023Z,60.38
2018-07-04T22:25:36.654Z,60.76
2018-07-04T22:28:50.334Z,60.79
2018-07-04T22:32:03.847Z,60.39
2018-07-04T22:35:17.588Z,61.47
2018-07-04T22:38:32.311Z,60.97
2018-07-04T22:41:45.880Z,61.66
2018-07-04T22:44:59.520Z,60.91
2018-07-04T22:48:13.021Z,62.18
2018-07-04T22:51:26.627Z,62.96
2018-07-04T22:54:40.325Z,63.05
2018-07-04T22:57:53.983Z,62.78
2018-07-04T23:01:07.684Z,63.21
2018-07-04T23:04:21.360Z,62.60
2018-07-04T23:07:35.974Z,62.90
2018-07-04T23:10:49.691Z,63.19
2018-07-04T23:14:03.511Z,63.22
2018-07-04T23:17:17.328Z,62.95
2018-07-04T23:20:32.683Z,63.64
2018-07-04T23:23:46.734Z,63.42
2018-07-04T23:27:00.378Z,63.57
2018-07-04T23:30:14.152Z,62.86
2018-07-04T23:33:27.709Z,61.87
2018-07-04T23:36:41.221Z,63.03
2018-07-04T23:39:54.869Z,63.44
2018-07-04T23:43:09.052Z,64.96
2018-07-04T23:46:22.591Z,66.41
2018-07-04T23:49:36.746Z,66.31
2018-07-04T23:52:51.417Z,66.58
2018-07-04T23:56:04.966Z,65.70
2018-07-04T23:59:18.690Z,66.86
